createdAt,value
2023-05-17T00:01:56.672Z,97643.34
2023-05-17T00:04:24.231Z,97643.63
2023-05-17T00:06:51.719Z,97640.63
2023-05-17T00:09:19.011Z,97652.09
2023-05-17T00:11:46.888Z,97635.03
2023-05-17T00:14:14.309Z,97630.50
2023-05-17T00:16:41.721Z,97640.19
2023-05-17T00:19:11.726Z,97642.09
2023-05-17T00:21:38.894Z,97631.50
2023-05-17T00:24:06.840Z,97646.88
2023-05-17T00:26:33.992Z,97650.94
2023-05-17T00:29:01.529Z,97667.47
2023-05-17T00:31:28.730Z,97694.81
2023-05-17T00:33:55.937Z,97734.34
2023-05-17T00:36:23.358Z,97744.16
2023-05-17T00:38:50.729Z,97766.44
2023-05-17T00:41:18.252Z,97764.28
2023-05-17T00:43:46.635Z,97763.63
2023-05-17T00:46:13.868Z,97741.00
2023-05-17T00:48:41.661Z,97750.00
2023-05-17T00:51:08.784Z,97768.91
2023-05-17T00:53:37.412Z,97793.94
2023-05-17T00:56:05.251Z,97807.56
2023-05-17T00:58:33.674Z,97820.88
2023-05-17T01:01:01.137Z,97835.59
2023-05-17T01:03:28.785Z,97853.94
2023-05-17T01:05:56.514Z,97858.91
2023-05-17T01:08:23.781Z,97862.84
2023-05-17T01:11:00.815Z,97863.28
2023-05-17T01:13:41.134Z,97886.13
2023-05-17T01:16:23.033Z,97880.34
2023-05-17T01:18:58.957Z,97886.91
2023-05-17T01:21:46.508Z,97889.84
2023-05-17T01:24:33.966Z,97886.47
2023-05-17T01:27:02.099Z,97911.06
2023-05-17T01:29:29.932Z,97912.75
2023-05-17T01:31:59.772Z,97924.31
2023-05-17T01:34:27.537Z,97932.88
2023-05-17T01:36:55.143Z,97940.56
2023-05-17T01:39:22.745Z,97933.66
2023-05-17T01:42:22.931Z,97954.91
2023-05-17T01:45:06.366Z,97951.06
2023-05-17T01:47:57.326Z,97942.06
2023-05-17T01:50:26.633Z,97939.66
2023-05-17T01:52:55.285Z,97938.44
2023-05-17T01:55:55.496Z,97950.78
2023-05-17T01:58:25.695Z,97959.03
2023-05-17T02:00:55.546Z,97961.47
2023-05-17T02:03:22.875Z,97965.59
2023-05-17T02:05:53.235Z,97961.25
2023-05-17T02:08:20.462Z,97968.25
2023-05-17T02:10:47.834Z,97969.09
2023-05-17T02:13:15.302Z,97971.56
2023-05-17T02:15:43.502Z,97970.50
2023-05-17T02:18:11.571Z,98004.34
2023-05-17T02:20:39.955Z,98001.63
2023-05-17T02:23:08.239Z,98000.78
2023-05-17T02:25:35.437Z,98007.16
2023-05-17T02:28:02.673Z,98005.22
2023-05-17T02:30:30.261Z,98002.50
2023-05-17T02:32:57.694Z,98018.59
2023-05-17T02:35:25.200Z,98033.34
2023-05-17T02:37:52.417Z,98041.28
2023-05-17T02:40:19.833Z,98047.47
2023-05-17T02:42:47.144Z,98075.25
2023-05-17T02:45:14.702Z,98063.81
2023-05-17T02:47:42.403Z,98039.25
2023-05-17T02:50:10.238Z,98046.88
2023-05-17T02:52:37.900Z,98052.75
2023-05-17T02:55:06.706Z,98077.25
2023-05-17T02:57:34.161Z,98050.25
2023-05-17T03:00:02.423Z,98047.16
2023-05-17T03:02:31.056Z,98065.53
2023-05-17T03:04:58.567Z,98097.22
2023-05-17T03:07:26.571Z,98110.38
2023-05-17T03:09:54.428Z,98125.63
2023-05-17T03:12:22.688Z,98121.91
2023-05-17T03:14:49.943Z,98123.75
2023-05-17T03:17:17.676Z,98116.41
2023-05-17T03:19:45.916Z,98119.59
2023-05-17T03:22:13.589Z,98135.72
2023-05-17T03:24:41.492Z,98140.72
2023-05-17T03:27:08.486Z,98151.19
2023-05-17T03:29:36.566Z,98134.69
2023-05-17T03:32:04.193Z,98147.06
2023-05-17T03:34:31.831Z,98138.16
2023-05-17T03:36:58.944Z,98149.31
2023-05-17T03:39:26.931Z,98155.53
2023-05-17T03:41:54.444Z,98167.38
2023-05-17T03:44:23.301Z,98158.97
2023-05-17T03:46:51.503Z,98161.59
2023-05-17T03:49:19.350Z,98164.47
2023-05-17T03:51:49.043Z,98156.59
2023-05-17T03:54:17.847Z,98154.03
2023-05-17T03:56:48.961Z,98123.81
2023-05-17T03:59:17.959Z,98187.88
2023-05-17T04:01:46.234Z,98169.78
2023-05-17T04:04:14.471Z,98170.47
2023-05-17T04:06:41.695Z,98185.06
2023-05-17T04:09:11.243Z,98187.88
